createdAt,value
2023-03-15T00:00:53.843Z,58.60
2023-03-15T00:03:24.447Z,59.00
2023-03-15T00:05:53.451Z,59.60
2023-03-15T00:08:22.805Z,59.90
2023-03-15T00:10:51.105Z,60.20
2023-03-15T00:13:19.425Z,60.40
2023-03-15T00:15:49.119Z,61.10
2023-03-15T00:18:20.635Z,61.60
2023-03-15T00:20:49.469Z,61.60
2023-03-15T00:23:18.271Z,60.90
2023-03-15T00:25:47.039Z,61.60
2023-03-15T00:28:15.943Z,61.80
2023-03-15T00:30:45.068Z,61.30
2023-03-15T00:33:14.853Z,62.00
2023-03-15T00:35:46.203Z,62.30
2023-03-15T00:38:15.032Z,62.40
2023-03-15T00:40:43.319Z,63.20
2023-03-15T00:43:11.681Z,63.00
2023-03-15T00:45:39.972Z,63.20
2023-03-15T00:48:08.283Z,63.60
2023-03-15T00:50:36.612Z,63.80
2023-03-15T00:53:06.337Z,64.30
2023-03-15T00:55:34.640Z,64.20
2023-03-15T00:58:02.976Z,63.70
2023-03-15T01:00:31.425Z,64.00
2023-03-15T01:02:59.782Z,64.80
2023-03-15T01:05:28.117Z,64.40
2023-03-15T01:07:56.415Z,65.30
2023-03-15T01:10:26.116Z,65.60
2023-03-15T01:12:54.459Z,65.60
2023-03-15T01:15:22.867Z,66.10
2023-03-15T01:17:51.185Z,66.20
2023-03-15T01:20:19.768Z,67.10
2023-03-15T01:22:48.037Z,67.40
2023-03-15T01:25:16.513Z,68.00
2023-03-15T01:27:46.200Z,67.50
2023-03-15T01:30:14.884Z,67.50
2023-03-15T01:32:43.189Z,68.00
2023-03-15T01:35:12.002Z,68.30
2023-03-15T01:37:40.458Z,67.80
2023-03-15T01:40:15.050Z,68.40
2023-03-15T01:43:16.987Z,69.40
2023-03-15T01:46:34.444Z,69.90
2023-03-15T01:49:08.701Z,70.00
2023-03-15T01:51:41.827Z,70.30
2023-03-15T01:54:14.660Z,70.20
2023-03-15T01:56:47.159Z,71.20
2023-03-15T01:59:23.297Z,70.90
2023-03-15T02:01:54.686Z,71.70
2023-03-15T02:04:26.576Z,72.20
2023-03-15T02:06:59.410Z,72.30
2023-03-15T02:09:31.913Z,72.80
2023-03-15T02:12:01.072Z,72.70
2023-03-15T02:14:32.211Z,72.70
2023-03-15T02:17:00.569Z,74.20
2023-03-15T02:19:41.603Z,75.00
2023-03-15T02:22:21.816Z,74.60
2023-03-15T02:24:55.350Z,75.40
2023-03-15T02:27:30.261Z,74.60
2023-03-15T02:29:58.867Z,76.10
2023-03-15T02:32:27.289Z,75.10
2023-03-15T02:34:55.610Z,74.30
2023-03-15T02:37:23.866Z,75.60
2023-03-15T02:39:52.177Z,75.90
2023-03-15T02:42:21.087Z,76.40
2023-03-15T02:44:52.597Z,76.40
2023-03-15T02:47:24.093Z,76.70
2023-03-15T02:49:54.022Z,76.60
2023-03-15T02:52:23.021Z,77.40
2023-03-15T02:54:51.552Z,76.90
2023-03-15T02:57:20.918Z,77.00
2023-03-15T02:59:51.096Z,76.90
2023-03-15T03:02:19.800Z,77.00
2023-03-15T03:04:48.101Z,77.40
2023-03-15T03:07:16.690Z,78.30
2023-03-15T03:09:45.051Z,78.00
2023-03-15T03:12:13.465Z,77.40
2023-03-15T03:14:43.483Z,77.90
2023-03-15T03:17:13.172Z,77.50
2023-03-15T03:19:41.537Z,77.30
2023-03-15T03:22:10.136Z,76.90
2023-03-15T03:24:38.466Z,77.50
2023-03-15T03:27:07.142Z,77.20
2023-03-15T03:29:35.412Z,77.00
2023-03-15T03:32:03.741Z,77.40
2023-03-15T03:34:33.378Z,77.20
2023-03-15T03:37:01.739Z,77.60
2023-03-15T03:39:30.874Z,77.00
2023-03-15T03:41:59.163Z,78.80
2023-03-15T03:44:27.626Z,78.50
2023-03-15T03:46:55.945Z,78.80
2023-03-15T03:49:24.215Z,78.80
2023-03-15T03:51:53.928Z,79.00
2023-03-15T03:54:22.507Z,79.00
2023-03-15T03:56:50.902Z,79.10
2023-03-15T03:59:19.228Z,79.20
2023-03-15T04:01:48.297Z,78.60
2023-03-15T04:04:16.846Z,79.90
2023-03-15T04:06:46.127Z,80.00
2023-03-15T04:09:17.628Z,80.40
2023-03-15T04:11:46.131Z,79.70
2023-03-15T04:14:15.921Z,80.70
2023-03-15T04:16:44.203Z,80.00
2023-03-15T04:19:13.803Z,80.10
2023-03-15T04:21:47.671Z,80.70
2023-03-15T04:24:17.524Z,80.30
2023-03-15T04:26:45.849Z,80.50
2023-03-15T04:29:15.357Z,80.20
2023-03-15T04:31:43.813Z,80.90
2023-03-15T04:34:12.123Z,81.70
2023-03-15T04:36:42.718Z,81.00
2023-03-15T04:39:11.054Z,80.90
2023-03-15T04:41:40.738Z,81.30
2023-03-15T04:44:09.045Z,81.70
2023-03-15T04:46:37.322Z,82.80
2023-03-15T04:49:06.176Z,82.90
2023-03-15T04:51:35.067Z,84.10
2023-03-15T04:54:04.657Z,83.30
2023-03-15T04:56:32.979Z,84.50
2023-03-15T04:59:02.723Z,84.30
2023-03-15T05:01:32.977Z,84.10
2023-03-15T05:04:01.485Z,84.70
2023-03-15T05:06:30.210Z,85.20
2023-03-15T05:08:58.573Z,84.60
2023-03-15T05:11:26.963Z,85.00
2023-03-15T05:13:55.287Z,85.40
2023-03-15T05:16:25.010Z,85.40
2023-03-15T05:18:54.086Z,85.60
2023-03-15T05:21:22.486Z,86.00
2023-03-15T05:23:51.574Z,86.10
2023-03-15T05:26:19.905Z,85.80
2023-03-15T05:28:48.202Z,86.00
2023-03-15T05:31:16.586Z,85.60
2023-03-15T05:33:47.133Z,85.50
2023-03-15T05:36:15.698Z,85.40
2023-03-15T05:38:45.596Z,85.20
2023-03-15T05:41:18.389Z,85.60
2023-03-15T05:43:46.796Z,85.60
2023-03-15T05:46:15.394Z,85.80
2023-03-15T05:48:45.147Z,85.70
2023-03-15T05:51:13.911Z,86.40
2023-03-15T05:53:44.122Z,86.40
2023-03-15T05:56:13.647Z,86.30
2023-03-15T05:58:41.930Z,86.10
2023-03-15T06:01:10.876Z,86.00
2023-03-15T06:03:39.251Z,85.90
2023-03-15T06:06:09.207Z,85.20
2023-03-15T06:08:37.582Z,85.50
2023-03-15T06:11:05.876Z,85.50
2023-03-15T06:13:34.474Z,85.40
2023-03-15T06:16:02.812Z,85.20
2023-03-15T06:18:31.137Z,85.00
2023-03-15T06:20:59.444Z,85.00
2023-03-15T06:23:29.116Z,85.10
2023-03-15T06:25:57.403Z,84.70
2023-03-15T06:28:25.788Z,84.50
2023-03-15T06:30:54.190Z,84.20
2023-03-15T06:33:24.485Z,84.70
2023-03-15T06:35:52.814Z,84.70
2023-03-15T06:38:21.238Z,84.30
2023-03-15T06:40:50.921Z,84.10
2023-03-15T06:43:19.813Z,83.70
2023-03-15T06:45:48.325Z,83.50
2023-03-15T06:48:17.511Z,83.60
2023-03-15T06:50:47.637Z,83.10
2023-03-15T06:53:16.884Z,83.80
2023-03-15T06:55:45.322Z,82.60
2023-03-15T06:58:16.446Z,82.50
2023-03-15T07:00:45.028Z,82.30
2023-03-15T07:03:13.415Z,82.30
2023-03-15T07:05:41.703Z,82.10
2023-03-15T07:08:10.139Z,82.00
2023-03-15T07:10:38.458Z,81.90
2023-03-15T07:13:07.050Z,81.80
2023-03-15T07:15:37.695Z,81.70
2023-03-15T07:18:06.106Z,81.30
2023-03-15T07:20:36.293Z,81.20
2023-03-15T07:23:05.972Z,81.10
2023-03-15T07:25:44.979Z,80.80
2023-03-15T07:28:20.570Z,80.20
2023-03-15T07:30:56.430Z,79.90
2023-03-15T07:33:25.707Z,79.20
2023-03-15T07:35:54.724Z,78.80
2023-03-15T07:38:24.101Z,78.50
2023-03-15T07:40:52.489Z,78.10
2023-03-15T07:43:20.854Z,77.60
2023-03-15T07:45:49.162Z,77.50
2023-03-15T07:48:18.818Z,77.30
2023-03-15T07:50:47.737Z,77.20
2023-03-15T07:53:16.449Z,77.00
2023-03-15T07:55:45.002Z,76.60
2023-03-15T07:58:13.372Z,76.60
2023-03-15T08:00:42.294Z,76.40
2023-03-15T08:03:11.091Z,75.70
2023-03-15T08:05:41.187Z,75.50
2023-03-15T08:08:09.431Z,74.70
2023-03-15T08:10:37.768Z,74.80
2023-03-15T08:13:06.116Z,74.60
2023-03-15T08:15:34.419Z,74.30
2023-03-15T08:18:04.161Z,74.20
2023-03-15T08:20:35.002Z,74.30
2023-03-15T08:23:04.695Z,73.80
2023-03-15T08:25:33.288Z,73.80
2023-03-15T08:28:02.484Z,74.00
2023-03-15T08:30:30.845Z,73.90
2023-03-15T08:32:59.361Z,74.00
2023-03-15T08:35:27.769Z,73.60
2023-03-15T08:37:56.786Z,73.40
2023-03-15T08:40:26.628Z,73.40
2023-03-15T08:42:55.461Z,73.20
2023-03-15T08:45:25.197Z,73.40
2023-03-15T08:47:56.976Z,73.40
2023-03-15T08:50:26.560Z,73.60
2023-03-15T08:52:55.439Z,73.30
2023-03-15T08:55:25.186Z,73.20
2023-03-15T08:57:53.556Z,72.30
2023-03-15T09:00:23.110Z,72.70
2023-03-15T09:02:53.418Z,72.30
2023-03-15T09:05:22.984Z,72.40
2023-03-15T09:07:53.103Z,72.30
2023-03-15T09:10:22.276Z,71.90
2023-03-15T09:12:54.022Z,71.60
2023-03-15T09:15:22.577Z,71.70
2023-03-15T09:17:53.151Z,71.50
2023-03-15T09:20:28.130Z,71.00
2023-03-15T09:22:58.249Z,70.20
2023-03-15T09:25:27.470Z,70.30
2023-03-15T09:27:57.377Z,70.30
2023-03-15T09:30:25.737Z,70.20
2023-03-15T09:32:54.196Z,69.90
2023-03-15T09:35:23.435Z,69.70
2023-03-15T09:37:52.487Z,69.00
2023-03-15T09:40:23.829Z,68.80
2023-03-15T09:43:03.491Z,69.00
2023-03-15T09:45:48.805Z,68.00
2023-03-15T09:48:22.567Z,67.90
2023-03-15T09:50:54.983Z,67.60
2023-03-15T09:53:29.049Z,67.50
2023-03-15T09:55:57.344Z,67.10
2023-03-15T09:58:32.769Z,66.70
2023-03-15T10:01:04.008Z,66.60
2023-03-15T10:03:38.838Z,66.30
2023-03-15T10:06:14.158Z,66.10
2023-03-15T10:08:42.547Z,65.70
2023-03-15T10:11:16.027Z,65.60
2023-03-15T10:13:59.704Z,65.80
2023-03-15T10:16:40.656Z,64.70
2023-03-15T10:19:18.525Z,64.90
2023-03-15T10:21:54.908Z,64.50
2023-03-15T10:24:32.695Z,64.70
2023-03-15T10:27:08.303Z,64.90
2023-03-15T10:29:38.508Z,64.90
2023-03-15T10:32:17.918Z,64.40
2023-03-15T10:34:49.795Z,63.80
2023-03-15T10:37:18.088Z,62.60
2023-03-15T10:39:51.644Z,62.90
2023-03-15T10:42:28.154Z,62.50
2023-03-15T10:44:58.582Z,61.30
2023-03-15T10:47:29.058Z,61.40
2023-03-15T10:50:08.315Z,61.40
2023-03-15T10:52:39.367Z,60.90
2023-03-15T10:55:12.618Z,61.10
2023-03-15T10:57:43.012Z,60.00
2023-03-15T11:00:27.226Z,60.30
2023-03-15T11:03:04.390Z,60.40
2023-03-15T11:05:38.089Z,60.40
2023-03-15T11:08:14.298Z,60.20
2023-03-15T11:10:44.371Z,59.90
2023-03-15T11:13:21.943Z,59.70
2023-03-15T11:16:01.660Z,59.70
2023-03-15T11:18:33.383Z,59.20
2023-03-15T11:21:06.033Z,58.40
2023-03-15T11:23:37.946Z,58.60
2023-03-15T11:26:07.359Z,58.00
2023-03-15T11:28:38.543Z,58.60
2023-03-15T11:31:08.500Z,58.20
2023-03-15T11:33:45.007Z,58.00
2023-03-15T11:36:18.899Z,58.00
2023-03-15T11:38:47.877Z,57.90
2023-03-15T11:41:26.622Z,57.40
2023-03-15T11:44:03.652Z,56.50
2023-03-15T11:46:38.037Z,56.00
2023-03-15T11:49:15.490Z,56.10
2023-03-15T11:51:43.904Z,56.30
2023-03-15T11:54:15.738Z,55.80
2023-03-15T11:56:50.685Z,54.90
2023-03-15T11:59:25.497Z,54.30
2023-03-15T12:01:59.200Z,54.50
2023-03-15T12:04:45.064Z,54.60
2023-03-15T12:07:39.903Z,55.00
2023-03-15T12:10:32.609Z,54.50
2023-03-15T12:13:09.070Z,54.50
2023-03-15T12:15:47.055Z,54.70
2023-03-15T12:18:23.267Z,54.10
2023-03-15T12:20:58.843Z,54.40
2023-03-15T12:23:39.473Z,53.90
2023-03-15T12:26:11.063Z,53.90
2023-03-15T12:28:44.131Z,53.40
2023-03-15T12:31:14.563Z,53.80
2023-03-15T12:33:50.792Z,54.20
2023-03-15T12:36:27.971Z,54.40
2023-03-15T12:39:02.034Z,54.40
2023-03-15T12:41:39.410Z,54.60
2023-03-15T12:44:25.708Z,54.60
2023-03-15T12:47:01.186Z,54.60
2023-03-15T12:49:34.916Z,54.30
2023-03-15T12:52:05.360Z,54.30
2023-03-15T12:54:42.966Z,54.10
2023-03-15T12:57:13.163Z,53.80
2023-03-15T12:59:53.186Z,53.50
2023-03-15T13:02:43.274Z,53.30
2023-03-15T13:05:21.902Z,52.80
2023-03-15T13:07:57.012Z,53.10
2023-03-15T13:10:57.302Z,53.20
2023-03-15T13:13:52.780Z,52.80
2023-03-15T13:16:31.137Z,51.70
2023-03-15T13:19:10.429Z,52.00
2023-03-15T13:21:49.772Z,51.90
2023-03-15T13:24:23.583Z,51.70
2023-03-15T13:26:58.553Z,51.40
2023-03-15T13:29:31.256Z,50.40
2023-03-15T13:32:08.107Z,50.60
2023-03-15T13:34:36.884Z,50.70
2023-03-15T13:37:15.164Z,49.80
2023-03-15T13:39:55.998Z,49.80
2023-03-15T13:42:25.789Z,50.50
2023-03-15T13:45:14.286Z,49.90
2023-03-15T13:47:44.124Z,49.40
2023-03-15T13:50:16.474Z,49.40
2023-03-15T13:52:47.077Z,49.00
2023-03-15T13:55:16.663Z,48.80
2023-03-15T13:57:45.221Z,48.20
2023-03-15T14:00:19.469Z,45.90
2023-03-15T14:02:50.063Z,45.20
2023-03-15T14:05:27.537Z,41.70
2023-03-15T14:08:02.804Z,42.10
2023-03-15T14:10:33.187Z,41.50
2023-03-15T14:13:22.459Z,40.80
2023-03-15T14:15:51.462Z,41.80
2023-03-15T14:18:25.013Z,41.70
2023-03-15T14:21:01.659Z,42.40
2023-03-15T14:23:32.287Z,42.00
2023-03-15T14:26:11.844Z,42.60
2023-03-15T14:28:40.801Z,42.80
2023-03-15T14:31:09.332Z,43.10
2023-03-15T14:33:40.429Z,43.30
2023-03-15T14:36:11.259Z,44.30
2023-03-15T14:38:41.293Z,43.60
2023-03-15T14:41:20.459Z,43.90
2023-03-15T14:43:48.789Z,43.60
2023-03-15T14:46:17.601Z,43.80
2023-03-15T14:48:46.546Z,43.80
2023-03-15T14:51:17.822Z,44.10
2023-03-15T14:53:49.754Z,44.10
2023-03-15T14:56:19.772Z,43.80
2023-03-15T14:58:49.553Z,43.70
2023-03-15T15:01:22.524Z,44.20
2023-03-15T15:03:54.924Z,44.30
2023-03-15T15:06:23.240Z,44.80
2023-03-15T15:08:57.040Z,45.00
2023-03-15T15:11:25.533Z,45.20
2023-03-15T15:13:54.158Z,45.30
2023-03-15T15:16:22.789Z,45.60
2023-03-15T15:18:51.220Z,45.60
2023-03-15T15:21:24.756Z,45.80
2023-03-15T15:23:58.905Z,46.00
2023-03-15T15:26:31.635Z,46.00
2023-03-15T15:29:00.787Z,45.90
2023-03-15T15:31:33.787Z,45.40
2023-03-15T15:34:02.672Z,45.40
2023-03-15T15:36:33.495Z,45.50
2023-03-15T15:39:07.255Z,45.70
2023-03-15T15:41:36.066Z,45.90
2023-03-15T15:44:04.880Z,45.90
2023-03-15T15:46:33.273Z,46.00
2023-03-15T15:49:01.639Z,46.10
2023-03-15T15:51:31.893Z,45.40
2023-03-15T15:54:03.085Z,45.40
2023-03-15T15:56:40.090Z,45.60
2023-03-15T15:59:13.839Z,45.80
2023-03-15T16:01:56.547Z,46.00
2023-03-15T16:04:27.724Z,46.20
2023-03-15T16:06:58.698Z,46.50
2023-03-15T16:09:30.179Z,46.80
2023-03-15T16:11:58.924Z,47.00
2023-03-15T16:14:27.264Z,47.10
2023-03-15T16:16:55.689Z,47.30
2023-03-15T16:19:24.011Z,47.40
2023-03-15T16:21:54.501Z,47.60
2023-03-15T16:24:26.435Z,47.70
2023-03-15T16:27:00.382Z,47.90
2023-03-15T16:29:33.727Z,48.20
2023-03-15T16:32:15.866Z,48.50
2023-03-15T16:34:47.637Z,48.70
2023-03-15T16:37:18.070Z,48.80
2023-03-15T16:39:50.826Z,48.80
2023-03-15T16:42:21.293Z,49.00
2023-03-15T16:44:50.212Z,49.10
2023-03-15T16:47:19.219Z,49.40
2023-03-15T16:49:47.670Z,49.70
2023-03-15T16:52:17.260Z,49.80
2023-03-15T16:54:47.718Z,50.10
2023-03-15T16:57:22.032Z,50.10
2023-03-15T16:59:50.633Z,50.30
2023-03-15T17:02:21.009Z,50.50
2023-03-15T17:04:49.515Z,50.70
2023-03-15T17:07:18.714Z,50.80
2023-03-15T17:09:49.432Z,51.10
2023-03-15T17:12:24.621Z,51.20
2023-03-15T17:14:53.365Z,51.80
2023-03-15T17:17:21.689Z,52.00
2023-03-15T17:19:50.076Z,52.30
2023-03-15T17:22:19.176Z,52.50
2023-03-15T17:24:47.995Z,52.70
2023-03-15T17:27:22.892Z,53.20
2023-03-15T17:29:52.980Z,53.30
2023-03-15T17:32:21.379Z,54.10
2023-03-15T17:34:52.818Z,53.90
2023-03-15T17:37:21.166Z,54.30
2023-03-15T17:39:49.673Z,55.10
2023-03-15T17:42:19.737Z,56.00
2023-03-15T17:44:48.437Z,56.40
2023-03-15T17:47:18.651Z,56.70
2023-03-15T17:49:48.344Z,56.60
2023-03-15T17:52:17.748Z,56.40
2023-03-15T17:54:46.461Z,56.40
2023-03-15T17:57:14.853Z,56.50
2023-03-15T17:59:43.318Z,56.40
2023-03-15T18:02:17.606Z,56.40
2023-03-15T18:04:46.350Z,56.70
2023-03-15T18:07:14.860Z,56.80
2023-03-15T18:09:43.237Z,57.70
2023-03-15T18:12:14.888Z,57.30
2023-03-15T18:14:43.823Z,57.60
2023-03-15T18:17:12.730Z,57.90
2023-03-15T18:19:42.574Z,58.10
2023-03-15T18:22:17.328Z,58.20
2023-03-15T18:24:47.160Z,58.30
2023-03-15T18:27:15.602Z,58.30
2023-03-15T18:29:43.918Z,58.50
2023-03-15T18:32:12.421Z,58.40
2023-03-15T18:34:42.365Z,58.90
2023-03-15T18:37:11.735Z,59.60
2023-03-15T18:39:40.047Z,60.60
2023-03-15T18:42:08.344Z,61.20
2023-03-15T18:44:36.640Z,60.70
2023-03-15T18:47:08.339Z,60.90
2023-03-15T18:49:36.844Z,62.20
2023-03-15T18:52:06.784Z,61.30
2023-03-15T18:54:35.130Z,61.60
2023-03-15T18:57:03.466Z,62.50
2023-03-15T18:59:31.859Z,62.80
2023-03-15T19:02:00.286Z,62.60
2023-03-15T19:04:28.822Z,63.00
2023-03-15T19:06:57.237Z,63.00
2023-03-15T19:09:26.982Z,64.70
2023-03-15T19:11:55.447Z,64.10
2023-03-15T19:14:24.000Z,64.90
2023-03-15T19:16:54.124Z,65.70
2023-03-15T19:19:22.921Z,65.90
2023-03-15T19:21:51.214Z,66.50
2023-03-15T19:24:19.538Z,66.40
2023-03-15T19:26:49.151Z,66.70
2023-03-15T19:29:17.479Z,66.70
2023-03-15T19:31:45.734Z,67.70
2023-03-15T19:34:14.082Z,67.60
2023-03-15T19:36:42.498Z,67.50
2023-03-15T19:39:12.396Z,68.40
2023-03-15T19:41:41.363Z,68.30
2023-03-15T19:44:11.257Z,68.80
2023-03-15T19:46:40.237Z,68.50
2023-03-15T19:49:08.989Z,68.60
2023-03-15T19:51:37.440Z,69.40
2023-03-15T19:54:06.056Z,69.40
2023-03-15T19:56:34.555Z,69.90
2023-03-15T19:59:03.307Z,70.40
2023-03-15T20:01:33.514Z,70.50
2023-03-15T20:04:02.269Z,70.80
2023-03-15T20:06:30.752Z,71.80
2023-03-15T20:08:59.156Z,71.70
2023-03-15T20:11:29.388Z,71.40
2023-03-15T20:13:57.751Z,71.40
2023-03-15T20:16:26.123Z,72.10
2023-03-15T20:18:56.937Z,72.60
2023-03-15T20:21:25.270Z,72.70
2023-03-15T20:23:54.233Z,73.00
2023-03-15T20:26:24.031Z,73.40
2023-03-15T20:28:52.338Z,74.20
2023-03-15T20:31:22.924Z,73.80
2023-03-15T20:33:52.401Z,74.40
2023-03-15T20:36:22.479Z,74.30
2023-03-15T20:38:50.803Z,74.60
2023-03-15T20:41:19.384Z,74.90
2023-03-15T20:43:47.850Z,75.20
2023-03-15T20:46:18.780Z,75.40
2023-03-15T20:48:47.337Z,75.30
2023-03-15T20:51:15.681Z,75.30
2023-03-15T20:53:45.479Z,75.90
2023-03-15T20:56:14.314Z,75.80
2023-03-15T20:58:42.684Z,77.10
2023-03-15T21:01:13.175Z,76.60
2023-03-15T21:03:44.570Z,78.40
2023-03-15T21:06:13.209Z,79.40
2023-03-15T21:08:41.668Z,79.80
2023-03-15T21:11:11.537Z,80.20
2023-03-15T21:13:39.838Z,80.20
2023-03-15T21:16:08.531Z,81.70
2023-03-15T21:18:37.768Z,81.90
2023-03-15T21:21:08.320Z,81.70
2023-03-15T21:23:37.073Z,82.90
2023-03-15T21:26:07.716Z,83.00
2023-03-15T21:28:37.812Z,84.40
2023-03-15T21:31:06.741Z,85.30
2023-03-15T21:33:35.537Z,84.70
2023-03-15T21:36:04.486Z,85.50
2023-03-15T21:38:35.209Z,86.10
2023-03-15T21:41:09.182Z,85.10
2023-03-15T21:43:39.589Z,85.40
2023-03-15T21:46:09.683Z,86.40
2023-03-15T21:48:38.234Z,86.60
2023-03-15T21:51:07.691Z,86.60
2023-03-15T21:53:37.133Z,86.80
2023-03-15T21:56:05.762Z,86.50
2023-03-15T21:58:34.434Z,87.60
2023-03-15T22:01:06.058Z,88.60
2023-03-15T22:03:36.384Z,88.70
2023-03-15T22:06:05.069Z,88.40
2023-03-15T22:08:34.343Z,88.20
2023-03-15T22:11:02.643Z,88.80
2023-03-15T22:13:31.225Z,89.30
2023-03-15T22:15:59.879Z,90.00
2023-03-15T22:18:29.976Z,90.20
2023-03-15T22:20:58.367Z,90.30
2023-03-15T22:23:26.771Z,90.30
2023-03-15T22:25:57.162Z,90.50
2023-03-15T22:28:26.247Z,90.60
2023-03-15T22:30:55.033Z,91.00
2023-03-15T22:33:23.537Z,91.20
2023-03-15T22:35:58.156Z,91.10
2023-03-15T22:38:28.812Z,91.10
2023-03-15T22:41:08.067Z,91.10
2023-03-15T22:43:36.750Z,91.50
2023-03-15T22:46:05.311Z,91.60
2023-03-15T22:48:33.697Z,91.70
2023-03-15T22:51:04.594Z,91.70
2023-03-15T22:53:34.998Z,91.70
2023-03-15T22:56:03.801Z,91.90
2023-03-15T22:58:32.197Z,92.00
2023-03-15T23:01:00.838Z,92.60
2023-03-15T23:03:29.520Z,92.20
2023-03-15T23:05:57.963Z,92.10
2023-03-15T23:08:27.734Z,92.20
2023-03-15T23:10:58.024Z,92.00
2023-03-15T23:13:26.499Z,92.30
2023-03-15T23:15:55.110Z,92.20
2023-03-15T23:18:23.667Z,92.10
2023-03-15T23:20:52.186Z,92.10
2023-03-15T23:23:20.466Z,92.10
2023-03-15T23:25:54.071Z,92.00
2023-03-15T23:28:24.437Z,92.20
2023-03-15T23:30:52.859Z,92.30
2023-03-15T23:33:21.299Z,92.20
2023-03-15T23:35:49.641Z,92.40
2023-03-15T23:38:17.890Z,92.30
2023-03-15T23:40:46.373Z,92.50
2023-03-15T23:43:16.028Z,92.50
2023-03-15T23:45:44.477Z,92.40
2023-03-15T23:48:12.936Z,92.50
2023-03-15T23:50:44.327Z,92.60
2023-03-15T23:53:12.594Z,92.60
2023-03-15T23:55:41.291Z,92.70
2023-03-15T23:58:09.571Z,92.70
